KNQI/NQI METAR and TAF weather

Enter ICAO airport designator
Station Type Date Time Source
KNQI METAR 2022/06/28 14:56 UTC NOAA

KNQI 281456Z 04004KT 10SM SCT220 SCT300 28/21 A3009 RMK AO2 SLP185 T02830211 51005 $


Station Type Date Time Source
KNQI Decoded METAR 2022/06/28 14:56 UTC NOAA

KINGSVILLE NAS, TX, United States (KNQI) 27-50N 097-81W 15M
Jun 28, 2022 - 10:56 AM EDT / 2022.06.28 1456 UTC
Wind: from the NE (040 degrees) at 5 MPH (4 KT):0
Visibility: 10 mile(s):0
Sky conditions: partly cloudy
Temperature: 82.9 F (28.3 C)
Dew Point: 70.0 F (21.1 C)
Relative Humidity: 65%
Pressure (altimeter): 30.09 in. Hg (1018 hPa)
Pressure tendency: 0.01 inches (0.5 hPa) higher than three hours ago
ob: KNQI 281456Z 04004KT 10SM SCT220 SCT300 28/21 A3009 RMK AO2 SLP185 T02830211 51005
cycle: 15

Station Type Date Time Source
KNQI TAF 2022/06/28 15:59 UTC NOAA

TAF KNQI 2815/2915 03007KT 9999 SCT035 SCT180 BKN250 QNH3004INS
FM281900 06010KT 9999 VCTS SCT045CB BKN120 BKN250 QNH2997INS
TEMPO 2820/2902 VRB25G35KT 1600 TSRA BR BKN015CB OVC070
FM290300 34005KT 9999 FEW030 BKN080 BKN250 QNH3001INS
FM291000 36009KT 9999 BKN025 QNH3003INS T35/2819Z T23/2911Z FN20081

Example: see airport list